KGCN/GCN METAR and TAF weather

Enter ICAO airport designator
Station Type Date Time Source
KGCN METAR 2021/07/27 21:54 UTC NOAA

KGCN 272154Z 27007KT 10SM FEW070 27/09 A3032 RMK AO2 LTG DSNT E SLP164 T02670094


Station Type Date Time Source
KGCN Decoded METAR 2021/07/27 21:54 UTC NOAA

GRAND CANYON NATL PARK AIRPORT , AZ, United States (KGCN) 35-57N 112-09W 2016M
Jul 27, 2021 - 05:54 PM EDT / 2021.07.27 2154 UTC
Wind: from the W (270 degrees) at 8 MPH (7 KT):0
Visibility: 10 mile(s):0
Sky conditions: mostly clear
Weather: Lightning observed
Temperature: 80.1 F (26.7 C)
Dew Point: 48.9 F (9.4 C)
Relative Humidity: 33%
Pressure (altimeter): 30.32 in. Hg (1026 hPa)
ob: KGCN 272154Z 27007KT 10SM FEW070 27/09 A3032 RMK AO2 LTG DSNT E SLP164 T02670094
cycle: 22

Station Type Date Time Source
KGCN TAF 2021/07/27 18:33 UTC NOAA

TAF KGCN 271730Z 2718/2818 VRB05KT P6SM VCTS FEW030CB BKN070
FM272100 24007KT P6SM VCSH SCT050 BKN100
TEMPO 2721/2724 5SM TSRA BKN070CB
FM280000 27007KT P6SM SCT050 BKN250

Example: see airport list